Time;durP1;ratioP1;P1;durP2;ratioP2;P2;SDS_P1;SDS_P2;PMS_P1;PMS_P2;Temp;Humidity;BMP_temperature;BMP_pressure;BME280_temperature;BME280_humidity;BME280_pressure;Samples;Min_cycle;Max_cycle;Signal;HPM_P1;HPM_P2
2022/12/20 05:17:23;;;;;;;55.00;21.98;;;;;;;-2.66;100.00;102003.69;5577220;32;200638;-89
2022/12/20 05:20:30;;;;;;;54.65;22.92;;;;;;;-2.68;100.00;102002.75;5563751;32;34220;-90
2022/12/20 05:26:57;;;;;;;55.17;22.40;;;;;;;-2.62;100.00;102015.94;5563915;32;32387;-90
2022/12/20 05:30:00;;;;;;;53.15;22.08;;;;;;;-2.60;100.00;102009.06;5564508;32;34033;-89
2022/12/20 05:33:04;;;;;;;50.30;21.80;;;;;;;-2.57;100.00;102007.44;5564466;32;34533;-89
2022/12/20 05:36:08;;;;;;;49.55;21.23;;;;;;;-2.66;100.00;102008.88;5568522;32;35019;-90
2022/12/20 05:39:12;;;;;;;47.72;21.05;;;;;;;-2.64;100.00;102002.00;5564567;32;33727;-89
2022/12/20 05:42:15;;;;;;;53.38;22.23;;;;;;;-2.75;100.00;102009.47;5563198;32;33996;-90
2022/12/20 05:45:18;;;;;;;48.67;21.20;;;;;;;-2.72;100.00;102010.44;5561675;32;33352;-90
2022/12/20 05:48:21;;;;;;;47.70;21.55;;;;;;;-2.72;100.00;102009.53;5563412;32;33599;-90
2022/12/20 05:51:24;;;;;;;55.38;22.95;;;;;;;-2.76;100.00;102011.16;5562691;32;34187;-89
2022/12/20 05:54:27;;;;;;;54.00;22.00;;;;;;;-2.82;100.00;102008.38;5545734;32;34375;-90
2022/12/20 05:57:31;;;;;;;44.70;20.60;;;;;;;-2.71;100.00;101995.75;5544164;32;34661;-89
2022/12/20 06:00:34;;;;;;;49.05;22.05;;;;;;;-2.67;100.00;101991.53;5548863;32;32996;-89
2022/12/20 06:03:39;;;;;;;47.85;22.52;;;;;;;-2.77;100.00;101987.75;5563870;32;33547;-89
2022/12/20 06:06:42;;;;;;;49.58;21.87;;;;;;;-2.57;100.00;101981.47;5565201;32;34061;-89
2022/12/20 06:09:45;;;;;;;50.35;21.87;;;;;;;-2.62;100.00;101969.19;5564434;32;34204;-88
2022/12/20 06:12:48;;;;;;;50.25;23.20;;;;;;;-2.69;100.00;101962.00;5562262;32;32383;-89
2022/12/20 06:15:52;;;;;;;45.78;20.60;;;;;;;-2.67;100.00;101966.41;5559112;32;33550;-89
2022/12/20 06:18:55;;;;;;;49.72;21.20;;;;;;;-2.62;100.00;101950.97;5561737;32;34291;-89
2022/12/20 06:21:59;;;;;;;48.65;20.90;;;;;;;-2.72;100.00;101955.87;5552488;32;31304;-89
2022/12/20 06:25:04;;;;;;;49.90;21.75;;;;;;;-2.76;100.00;101967.00;5554798;32;33882;-89
2022/12/20 06:28:08;;;;;;;49.78;22.10;;;;;;;-2.73;100.00;101959.31;5542137;32;32877;-89
2022/12/20 06:31:11;;;;;;;45.70;21.00;;;;;;;-2.82;100.00;101963.34;5546497;32;35328;-89
2022/12/20 06:34:14;;;;;;;56.25;22.42;;;;;;;-2.81;100.00;101960.81;5549873;32;33822;-89
2022/12/20 06:37:18;;;;;;;54.03;21.33;;;;;;;-2.87;100.00;101953.69;5548722;32;33772;-89
2022/12/20 06:40:22;;;;;;;50.63;21.80;;;;;;;-2.87;100.00;101951.09;5544388;32;32846;-89
2022/12/20 06:43:24;;;;;;;53.53;22.33;;;;;;;-2.84;100.00;101947.72;5544385;32;32601;-89
2022/12/20 06:46:28;;;;;;;52.17;22.08;;;;;;;-2.86;100.00;101941.59;5553496;32;34242;-91
2022/12/20 06:49:32;;;;;;;50.95;22.08;;;;;;;-2.83;100.00;101935.63;5551632;32;34108;-93
2022/12/20 06:52:36;;;;;;;49.15;21.30;;;;;;;-2.83;100.00;101931.28;5550642;32;35062;-93
2022/12/20 06:55:39;;;;;;;48.83;22.13;;;;;;;-2.86;100.00;101937.28;5549399;32;34574;-90
2022/12/20 06:58:45;;;;;;;49.30;21.75;;;;;;;-2.73;100.00;101927.25;5545660;32;33888;-89
2022/12/20 07:01:47;;;;;;;54.67;22.00;;;;;;;-2.63;100.00;101921.50;5539744;32;33830;-89
2022/12/20 07:04:50;;;;;;;47.90;22.40;;;;;;;-2.52;100.00;101918.34;5536843;32;32577;-87
2022/12/20 07:07:53;;;;;;;46.97;21.37;;;;;;;-2.48;100.00;101926.28;5540440;32;34283;-87
2022/12/20 07:11:02;;;;;;;53.45;21.52;;;;;;;-2.40;100.00;101923.91;5536719;32;33577;-87
2022/12/20 07:14:05;;;;;;;48.65;22.70;;;;;;;-2.39;100.00;101917.87;5537941;32;33053;-87
2022/12/20 07:17:08;;;;;;;50.75;22.02;;;;;;;-2.30;100.00;101918.13;5536131;32;32204;-87
2022/12/20 07:20:11;;;;;;;49.40;22.45;;;;;;;-2.30;100.00;101928.50;5548437;32;33818;-88
2022/12/20 07:23:17;;;;;;;53.00;22.15;;;;;;;-2.15;100.00;101934.13;5558927;32;34232;-87
2022/12/20 07:26:20;;;;;;;47.38;21.33;;;;;;;-2.11;100.00;101933.38;5563365;32;33866;-86
2022/12/20 07:29:24;;;;;;;49.58;20.70;;;;;;;-2.08;100.00;101929.13;5551107;32;34140;-87
2022/12/20 07:32:28;;;;;;;49.10;21.20;;;;;;;-2.04;100.00;101933.59;5548067;32;34025;-87
2022/12/20 07:35:31;;;;;;;48.85;21.95;;;;;;;-2.04;100.00;101948.31;5538039;32;35867;-87
2022/12/20 07:38:34;;;;;;;45.00;20.58;;;;;;;-1.88;100.00;101947.00;5529659;32;34410;-87
2022/12/20 07:41:39;;;;;;;50.72;20.92;;;;;;;-1.76;100.00;101944.72;5534649;32;33964;-87
2022/12/20 07:44:46;;;;;;;45.28;20.15;;;;;;;-1.63;100.00;101934.66;5529295;32;33228;-88
2022/12/20 07:47:49;;;;;;;43.58;19.98;;;;;;;-1.68;100.00;101937.12;5535941;32;33855;-88
2022/12/20 07:50:57;;;;;;;39.78;19.95;;;;;;;-1.57;100.00;101942.59;5557754;32;33758;-88
2022/12/20 07:54:09;;;;;;;45.53;20.55;;;;;;;-1.53;100.00;101939.25;5562886;32;34256;-88
2022/12/20 07:57:18;;;;;;;47.75;20.05;;;;;;;-1.49;100.00;101937.59;5543675;32;33873;-88
2022/12/20 08:00:22;;;;;;;44.65;18.98;;;;;;;-1.14;100.00;101936.72;5543913;32;33883;-88
2022/12/20 08:03:31;;;;;;;46.75;21.75;;;;;;;-1.33;100.00;101937.97;5548284;32;34388;-88
2022/12/20 08:06:36;;;;;;;42.30;19.70;;;;;;;-1.56;100.00;101926.16;5559905;32;34466;-88
2022/12/20 08:09:42;;;;;;;45.17;19.83;;;;;;;-1.50;100.00;101918.50;5559115;32;33876;-89
2022/12/20 08:12:47;;;;;;;43.90;19.33;;;;;;;-1.56;100.00;101912.28;5553601;32;33933;-88
2022/12/20 08:15:50;;;;;;;47.88;19.85;;;;;;;-1.58;100.00;101903.53;5540446;32;32535;-88
2022/12/20 08:18:53;;;;;;;43.95;19.80;;;;;;;-1.61;100.00;101900.84;5540124;32;33623;-88
2022/12/20 08:21:55;;;;;;;39.22;18.00;;;;;;;-1.50;100.00;101894.22;5548427;32;33506;-89
2022/12/20 08:24:58;;;;;;;47.22;19.62;;;;;;;-1.47;100.00;101889.06;5539715;32;34318;-89
2022/12/20 08:28:02;;;;;;;40.70;18.50;;;;;;;-1.53;100.00;101889.81;5547246;32;33960;-87
2022/12/20 08:31:08;;;;;;;37.17;18.48;;;;;;;-1.41;100.00;101889.22;5540018;32;32966;-88
2022/12/20 08:34:11;;;;;;;37.72;17.92;;;;;;;-1.45;100.00;101896.91;5551067;32;34184;-92
2022/12/20 08:37:24;;;;;;;43.65;19.55;;;;;;;-1.44;100.00;101901.28;5573135;26;35026;31
2022/12/20 08:40:28;;;;;;;42.40;18.75;;;;;;;-1.14;100.00;101895.03;5548593;32;34018;-88
2022/12/20 08:43:31;;;;;;;40.03;19.33;;;;;;;-1.01;100.00;101894.47;5544310;32;34040;-88
2022/12/20 08:46:35;;;;;;;40.60;18.67;;;;;;;-0.92;100.00;101898.16;5569813;32;34079;-90
2022/12/20 08:49:38;;;;;;;39.05;18.15;;;;;;;-1.01;100.00;101901.44;5560543;32;34819;-89
2022/12/20 08:52:49;;;;;;;43.73;18.40;;;;;;;-1.02;100.00;101895.31;5566280;32;34279;-88
2022/12/20 08:55:52;;;;;;;38.80;18.48;;;;;;;-1.16;100.00;101881.97;5543186;32;32911;-88
2022/12/20 08:58:57;;;;;;;37.45;17.12;;;;;;;-0.99;100.00;101878.88;5560354;32;33888;-88
2022/12/20 09:05:35;;;;;;;34.72;16.37;;;;;;;-0.82;100.00;101890.56;5530078;32;33877;-89
2022/12/20 09:16:03;;;;;;;36.38;17.20;;;;;;;-0.84;100.00;101881.81;4921633;30;20074;-91
2022/12/20 09:19:06;;;;;;;37.15;16.58;;;;;;;-0.70;100.00;101891.69;5536562;32;34625;-91
2022/12/20 09:22:09;;;;;;;40.38;18.67;;;;;;;-0.43;100.00;101890.50;5528937;32;34392;-88
2022/12/20 09:25:13;;;;;;;36.97;16.65;;;;;;;-0.30;100.00;101882.06;5509860;32;33739;-88
2022/12/20 09:28:15;;;;;;;42.13;17.73;;;;;;;-0.37;100.00;101874.97;5520422;32;32440;-87
2022/12/20 09:31:21;;;;;;;34.58;16.62;;;;;;;-0.16;100.00;101871.91;5519851;32;34233;-87
2022/12/20 09:34:24;;;;;;;36.85;17.75;;;;;;;1.04;100.00;101870.34;5526703;32;33868;-87
2022/12/20 09:37:30;;;;;;;37.25;16.62;;;;;;;3.10;100.00;101858.38;5520095;32;34013;-87
2022/12/20 09:40:37;;;;;;;39.78;17.77;;;;;;;4.82;100.00;101854.25;5525597;32;33870;-87
2022/12/20 09:43:40;;;;;;;34.05;16.52;;;;;;;5.11;77.13;101834.91;5531618;32;33873;-87
2022/12/20 09:46:50;;;;;;;30.90;15.23;;;;;;;5.44;74.93;101832.16;5516337;32;33704;-86
2022/12/20 09:49:56;;;;;;;34.08;16.37;;;;;;;5.91;73.30;101832.75;5523059;32;34922;-87
2022/12/20 09:53:21;;;;;;;34.58;16.40;;;;;;;7.05;67.87;101826.50;5527057;32;33834;-87
2022/12/20 09:56:29;;;;;;;34.03;16.40;;;;;;;9.01;60.29;101826.09;5531431;32;34047;-86
2022/12/20 09:59:34;;;;;;;30.67;16.35;;;;;;;8.46;58.40;101830.63;5535816;32;33652;-87
2022/12/20 10:02:44;;;;;;;30.62;16.00;;;;;;;6.87;63.43;101827.56;5548109;32;34430;-87
2022/12/20 10:06:23;;;;;;;34.20;16.87;;;;;;;7.14;63.68;101817.56;5524214;32;33468;-88
2022/12/20 10:09:50;;;;;;;36.90;16.92;;;;;;;7.65;61.59;101814.25;5530895;32;35269;-86
2022/12/20 10:13:21;;;;;;;34.13;16.20;;;;;;;4.90;71.13;101808.66;5541636;32;35044;-91
2022/12/20 10:16:37;;;;;;;30.58;16.50;;;;;;;3.99;75.25;101811.41;5523523;32;34342;-86
2022/12/20 10:19:59;;;;;;;35.22;17.30;;;;;;;2.73;82.67;101805.72;5532495;32;34055;-85
2022/12/20 10:23:16;;;;;;;36.28;16.12;;;;;;;2.45;86.23;101802.91;5544090;32;34500;-86
2022/12/20 10:26:21;;;;;;;34.50;16.00;;;;;;;2.30;87.88;101793.19;5539999;32;35287;-85
2022/12/20 10:29:24;;;;;;;33.50;16.40;;;;;;;2.48;87.13;101776.75;5524861;32;33204;-86
2022/12/20 10:32:28;;;;;;;31.77;16.52;;;;;;;2.74;86.74;101783.91;5525994;32;32892;-85
2022/12/20 10:35:39;;;;;;;34.58;17.20;;;;;;;1.71;91.89;101777.88;5535500;32;35229;-85
2022/12/20 10:38:43;;;;;;;;;;;;;;;1.82;92.01;101767.50;5509326;32;33993;-85
2022/12/20 10:41:48;;;;;;;37.33;16.08;;;;;;;1.60;93.92;101754.22;5553841;32;34372;-85
2022/12/20 10:44:52;;;;;;;33.28;15.98;;;;;;;1.78;92.93;101762.22;5549843;32;34806;-86
2022/12/20 10:47:59;;;;;;;32.58;15.70;;;;;;;1.88;91.38;101754.47;5528883;32;34158;-85
2022/12/20 10:51:22;;;;;;;37.72;17.48;;;;;;;2.12;90.28;101762.53;5530152;32;34347;-86
2022/12/20 10:54:29;;;;;;;31.75;15.85;;;;;;;1.77;92.09;101760.47;5540875;32;34131;-86
2022/12/20 10:57:32;;;;;;;28.30;15.95;;;;;;;1.62;93.23;101742.03;5538850;32;34175;-88
2022/12/20 11:00:41;;;;;;;32.00;16.10;;;;;;;1.26;95.87;101729.47;5517821;32;33235;-92
2022/12/20 11:04:02;;;;;;;33.38;16.55;;;;;;;1.37;94.86;101734.81;5521801;32;35023;-90
2022/12/20 11:07:25;;;;;;;34.50;16.02;;;;;;;1.30;95.90;101720.78;5538158;32;33653;-87
2022/12/20 11:10:29;;;;;;;33.05;16.65;;;;;;;0.99;97.38;101726.56;5537104;32;35215;-87
2022/12/20 11:13:31;;;;;;;32.20;16.77;;;;;;;1.05;97.64;101713.56;5528646;32;34113;-87
2022/12/20 11:16:38;;;;;;;33.80;16.62;;;;;;;1.00;97.27;101706.53;5514861;32;32485;-87
2022/12/20 11:19:50;;;;;;;28.67;15.57;;;;;;;1.10;97.15;101705.75;5533547;32;33582;-87
2022/12/20 11:23:16;;;;;;;31.80;16.40;;;;;;;1.09;97.14;101700.53;5535517;32;33623;-87
2022/12/20 11:26:49;;;;;;;34.22;15.63;;;;;;;1.26;95.17;101698.97;5532487;32;34296;-87
2022/12/20 11:30:21;;;;;;;35.08;15.73;;;;;;;1.56;95.15;101696.66;5525635;32;33914;-88
2022/12/20 11:33:46;;;;;;;35.20;15.32;;;;;;;1.54;94.52;101678.31;5534806;32;35119;-89
2022/12/20 11:37:02;;;;;;;33.83;16.10;;;;;;;1.64;94.08;101675.75;5518791;32;33348;-87
2022/12/20 11:40:28;;;;;;;33.85;16.17;;;;;;;1.60;94.42;101672.25;5530057;32;33621;-87
2022/12/20 11:43:45;;;;;;;35.35;17.37;;;;;;;1.69;94.64;101674.97;5524980;32;33830;-87
2022/12/20 11:47:45;;;;;;;34.28;16.83;;;;;;;2.09;93.74;101663.00;5532234;32;34210;-89
2022/12/20 11:51:07;;;;;;;36.17;16.27;;;;;;;2.22;90.36;101669.22;5545040;32;35313;-88
2022/12/20 11:54:22;;;;;;;33.75;16.02;;;;;;;2.01;89.89;101661.22;5541837;32;34276;-86
2022/12/20 11:57:31;;;;;;;34.70;16.50;;;;;;;1.81;92.35;101662.84;5530100;32;35284;-91
2022/12/20 12:01:06;;;;;;;30.35;15.55;;;;;;;1.78;92.50;101674.16;5525210;32;33842;-85
2022/12/20 12:04:19;;;;;;;32.85;16.80;;;;;;;2.48;90.08;101658.00;5529636;32;34060;-87
2022/12/20 12:07:31;;;;;;;31.30;15.85;;;;;;;2.12;90.42;101655.19;5539918;32;33889;-88
2022/12/20 12:10:38;;;;;;;33.60;15.65;;;;;;;2.08;90.00;101654.31;5545697;32;34918;-86
2022/12/20 12:13:44;;;;;;;33.15;15.73;;;;;;;1.94;90.27;101646.34;5546782;32;33652;-87
2022/12/20 12:16:52;;;;;;;35.22;16.55;;;;;;;1.86;91.75;101648.06;5533398;32;32448;-86
2022/12/20 12:20:03;;;;;;;32.53;16.73;;;;;;;1.97;90.65;101637.66;5510519;32;34958;-87
2022/12/20 12:23:29;;;;;;;34.05;15.77;;;;;;;1.85;91.59;101636.69;5508104;32;34077;-87
2022/12/20 12:26:39;;;;;;;30.55;15.70;;;;;;;1.75;92.38;101638.38;5532788;32;34614;-86
2022/12/20 12:29:42;;;;;;;31.15;16.20;;;;;;;1.73;92.82;101628.75;5531713;32;34074;-87
2022/12/20 12:33:02;;;;;;;30.73;14.82;;;;;;;1.75;92.21;101625.28;5525324;32;33391;-86
2022/12/20 12:36:08;;;;;;;31.55;15.88;;;;;;;1.84;92.95;101621.88;5539958;32;34103;-87
2022/12/20 12:39:33;;;;;;;34.33;16.55;;;;;;;1.75;93.48;101621.78;5504930;32;33427;-89
2022/12/20 12:43:10;;;;;;;33.28;15.90;;;;;;;1.64;92.61;101612.97;5498469;32;32971;-87
2022/12/20 12:46:39;;;;;;;37.05;16.83;;;;;;;1.48;94.02;101611.16;5511170;32;33772;-87
2022/12/20 12:49:48;;;;;;;32.13;16.40;;;;;;;1.45;94.54;101611.12;5532742;32;33798;-87
2022/12/20 12:52:54;;;;;;;32.45;15.55;;;;;;;1.51;93.97;101612.91;5514214;32;33707;-87
2022/12/20 12:56:21;;;;;;;33.28;15.43;;;;;;;1.45;94.67;101610.22;5537676;32;34426;-87
2022/12/20 12:59:46;;;;;;;31.62;15.55;;;;;;;1.58;94.48;101611.22;5524840;32;32844;-88
2022/12/20 13:02:50;;;;;;;33.17;16.48;;;;;;;1.53;95.52;101610.28;5530628;32;34285;-87
2022/12/20 13:05:54;;;;;;;30.98;15.30;;;;;;;1.38;95.70;101603.19;5528523;32;33153;-87
2022/12/20 13:08:57;;;;;;;34.67;15.93;;;;;;;1.57;95.34;101604.25;5549240;32;35444;-86
2022/12/20 13:12:35;;;;;;;31.92;15.35;;;;;;;1.54;94.88;101602.47;5527920;32;34010;-86
2022/12/20 13:15:41;;;;;;;30.80;15.52;;;;;;;1.41;95.75;101592.78;5539354;32;32926;-88
2022/12/20 13:19:01;;;;;;;31.23;15.15;;;;;;;1.41;95.52;101593.63;5520091;32;34293;-87
2022/12/20 13:22:16;;;;;;;30.45;14.70;;;;;;;1.45;95.53;101595.44;5528063;32;33993;-87
2022/12/20 13:25:46;;;;;;;29.23;15.30;;;;;;;1.56;95.37;101586.78;5520023;32;33244;-87
2022/12/20 13:28:49;;;;;;;30.20;14.73;;;;;;;1.44;95.88;101588.44;5518192;32;33739;-86
2022/12/20 13:31:52;;;;;;;34.33;16.75;;;;;;;1.40;96.14;101588.41;5518401;32;33011;-87
2022/12/20 13:34:57;;;;;;;33.60;16.00;;;;;;;1.25;96.77;101578.72;5547022;32;33830;-87
2022/12/20 13:38:04;;;;;;;32.40;15.68;;;;;;;1.22;97.29;101574.34;5553332;32;34313;-87
2022/12/20 13:41:29;;;;;;;33.47;14.80;;;;;;;1.19;98.06;101566.44;5561561;32;35064;-87
2022/12/20 13:44:46;;;;;;;31.83;14.57;;;;;;;1.22;98.82;101574.34;5546439;32;34810;-86
2022/12/20 13:47:58;;;;;;;33.03;15.70;;;;;;;1.21;97.66;101577.81;5540411;32;34096;-86
2022/12/20 13:51:01;;;;;;;31.45;15.32;;;;;;;1.17;97.81;101582.09;5539214;32;35357;-90
2022/12/20 13:54:13;;;;;;;32.75;15.93;;;;;;;1.18;97.89;101570.81;5547177;32;34013;-90
2022/12/20 13:57:43;;;;;;;34.65;16.40;;;;;;;1.06;99.98;101571.56;5555663;32;34899;-87
2022/12/20 14:00:48;;;;;;;34.10;16.27;;;;;;;1.19;100.00;101569.06;5553618;32;35339;-88
2022/12/20 14:03:52;;;;;;;32.30;15.93;;;;;;;1.11;99.63;101553.31;5544541;32;35118;-88
2022/12/20 14:06:59;;;;;;;31.92;15.07;;;;;;;1.10;100.00;101546.34;5544080;32;34670;-87
2022/12/20 14:10:14;;;;;;;31.55;16.27;;;;;;;1.10;100.00;101548.09;5521706;32;34204;-88
2022/12/20 14:13:25;;;;;;;37.13;16.05;;;;;;;1.00;100.00;101537.53;5517511;32;34182;-87
2022/12/20 14:16:32;;;;;;;38.97;18.12;;;;;;;1.10;100.00;101542.88;5515849;32;32751;-87
2022/12/20 14:19:34;;;;;;;32.47;18.08;;;;;;;1.02;100.00;101532.34;5524077;32;33716;-86
2022/12/20 14:23:01;;;;;;;35.47;18.20;;;;;;;0.93;100.00;101531.41;5528669;32;33215;-85
2022/12/20 14:26:28;;;;;;;35.90;17.80;;;;;;;0.90;100.00;101540.94;5532156;32;32182;-85
2022/12/20 14:29:31;;;;;;;40.40;17.85;;;;;;;0.76;100.00;101531.22;5530654;32;34025;-86
2022/12/20 14:32:34;;;;;;;37.38;16.77;;;;;;;0.79;100.00;101525.16;5524925;32;34123;-86
2022/12/20 14:35:46;;;;;;;33.45;17.70;;;;;;;0.67;100.00;101526.78;5518289;32;32791;-87
2022/12/20 14:38:51;;;;;;;36.88;17.30;;;;;;;0.55;100.00;101520.59;5519754;32;33155;-91
2022/12/20 14:42:02;;;;;;;37.85;17.80;;;;;;;0.27;100.00;101521.16;5518459;32;33823;-91
2022/12/20 14:45:15;;;;;;;38.38;18.95;;;;;;;0.07;100.00;101515.69;5520938;32;32288;-87
2022/12/20 14:48:18;;;;;;;37.88;18.33;;;;;;;0.09;100.00;101512.25;5516117;32;34805;-87
2022/12/20 14:51:21;;;;;;;41.05;19.25;;;;;;;0.06;100.00;101519.16;5514120;32;33924;-87
2022/12/20 14:54:27;;;;;;;38.88;18.98;;;;;;;-0.11;100.00;101505.91;5510844;32;33986;-88
2022/12/20 14:57:53;;;;;;;36.33;18.70;;;;;;;-0.20;100.00;101507.53;5511082;32;32871;-88
2022/12/20 15:01:16;;;;;;;45.20;20.12;;;;;;;-0.08;100.00;101506.81;5511497;32;32765;-88
2022/12/20 15:04:24;;;;;;;43.47;20.35;;;;;;;-0.06;100.00;101512.94;5512201;32;34532;-89
2022/12/20 15:07:30;;;;;;;43.25;21.00;;;;;;;-0.02;100.00;101519.06;5512454;32;34496;-88
2022/12/20 15:10:36;;;;;;;50.10;21.92;;;;;;;-0.14;100.00;101510.22;5513268;32;33607;-88
2022/12/20 15:13:51;;;;;;;45.20;22.67;;;;;;;-0.01;100.00;101518.19;5513254;32;33730;-88
2022/12/20 15:16:54;;;;;;;46.88;22.37;;;;;;;-0.20;100.00;101512.75;5570775;26;34127;-88
2022/12/20 15:19:58;;;;;;;47.62;23.70;;;;;;;-0.21;100.00;101508.37;5536125;32;33894;-88
2022/12/20 15:23:01;;;;;;;47.78;22.75;;;;;;;-0.23;100.00;101504.91;5521923;32;34001;-87
2022/12/20 15:26:04;;;;;;;51.83;24.70;;;;;;;-0.25;100.00;101498.75;5537771;32;34090;-88
2022/12/20 15:29:16;;;;;;;54.40;24.65;;;;;;;-0.31;100.00;101496.97;5541152;32;34039;-88
2022/12/20 15:32:29;;;;;;;50.03;23.98;;;;;;;-0.42;100.00;101506.38;5534241;32;34418;-88
2022/12/20 15:35:32;;;;;;;51.17;24.50;;;;;;;-0.45;100.00;101506.34;5532936;32;33829;-86
2022/12/20 15:38:40;;;;;;;53.13;24.67;;;;;;;-0.35;100.00;101512.56;5532249;32;35255;-91
2022/12/20 15:41:59;;;;;;;53.05;24.48;;;;;;;-0.41;100.00;101527.25;5529867;32;32478;-87
2022/12/20 15:45:02;;;;;;;49.45;23.73;;;;;;;-0.30;100.00;101521.31;5529940;32;33498;-87
2022/12/20 15:48:07;;;;;;;46.75;23.25;;;;;;;-0.40;100.00;101528.13;5516128;32;32798;-87
2022/12/20 15:51:20;;;;;;;52.85;24.30;;;;;;;-0.52;100.00;101526.22;5517172;32;32712;-87
2022/12/20 15:54:29;;;;;;;48.45;23.30;;;;;;;-0.44;100.00;101528.94;5530777;32;33943;-87
2022/12/20 15:57:33;;;;;;;46.90;23.83;;;;;;;-0.56;100.00;101530.50;5518149;32;33110;-87
2022/12/20 16:00:40;;;;;;;50.97;24.00;;;;;;;-0.56;100.00;101525.28;5518444;32;33124;-87
2022/12/20 16:03:43;;;;;;;49.55;23.48;;;;;;;-0.55;100.00;101516.62;5521395;32;33874;-88
2022/12/20 16:06:48;;;;;;;48.80;24.17;;;;;;;-0.46;100.00;101515.88;5540517;32;34214;-87
2022/12/20 16:09:51;;;;;;;52.45;23.77;;;;;;;-0.48;100.00;101515.00;5535082;32;34447;-87
2022/12/20 16:12:54;;;;;;;48.63;22.73;;;;;;;-0.58;100.00;101520.91;5521004;32;32832;-88
2022/12/20 16:15:58;;;;;;;47.90;23.15;;;;;;;-0.71;100.00;101520.72;5517293;32;32837;-88
2022/12/20 16:19:05;;;;;;;50.40;24.02;;;;;;;-0.52;100.00;101527.97;5532051;32;33740;-88
2022/12/20 16:22:16;;;;;;;51.63;24.12;;;;;;;-0.64;100.00;101521.72;5531160;32;34232;-88
2022/12/20 16:25:27;;;;;;;46.47;22.73;;;;;;;-0.61;100.00;101519.13;5518854;32;32684;-88
2022/12/20 16:28:30;;;;;;;57.80;25.92;;;;;;;-0.66;100.00;101512.09;5532296;32;34494;-88
2022/12/20 16:31:35;;;;;;;52.53;25.73;;;;;;;-0.62;100.00;101506.97;5543726;32;34646;-88
2022/12/20 16:34:38;;;;;;;56.15;25.08;;;;;;;-0.63;100.00;101513.03;5538134;32;33802;-87
2022/12/20 16:37:41;;;;;;;54.55;23.80;;;;;;;-0.69;100.00;101510.34;5531154;32;34182;-88
